| time (UTC) | temp F | wind direction | speed MPH | gust MPH | rain 1hr in | rain 24hr in | rain mn in | humidity % | barometer mb |
| 20260904221516 | 85 | 225 | 7.0 | 15.0 | 0.00 | 0.00 | 0.00 | 16 | 1013.6 |
| 20260904220516 | 85 | 203 | 7.0 | 16.0 | 0.00 | 0.00 | 0.00 | 15 | 1013.8 |
| 20260904215516 | 84 | 225 | 9.0 | 17.0 | 0.00 | 0.00 | 0.00 | 15 | 1013.9 |
| 20260904214516 | 84 | 225 | 7.0 | 17.0 | 0.00 | 0.00 | 0.00 | 15 | 1014.0 |
| 20260904213516 | 84 | 225 | 7.0 | 16.0 | 0.00 | 0.00 | 0.00 | 15 | 1014.1 |
| 20260904212516 | 84 | 203 | 7.0 | 16.0 | 0.00 | 0.00 | 0.00 | 16 | 1014.1 |
| 20260904211516 | 84 | 203 | 7.0 | 14.0 | 0.00 | 0.00 | 0.00 | 16 | 1014.1 |
| 20260904210516 | 83 | 225 | 7.0 | 17.0 | 0.00 | 0.00 | 0.00 | 17 | 1014.4 |
| 20260904205516 | 83 | 248 | 10.0 | 26.0 | 0.00 | 0.00 | 0.00 | 17 | 1014.4 |
| 20260904204516 | 83 | 225 | 6.0 | 13.0 | 0.00 | 0.00 | 0.00 | 18 | 1014.2 |
| 20260904203516 | 82 | 158 | 10.0 | 27.0 | 0.00 | 0.00 | 0.00 | 17 | 1014.6 |
| 20260904202536 | 82 | 225 | 8.0 | 20.0 | 0.00 | 0.00 | 0.00 | 18 | 1014.8 |
| 20260904201516 | 82 | 225 | 6.0 | 17.0 | 0.00 | 0.00 | 0.00 | 19 | 1014.8 |
| 20260904200516 | 82 | 180 | 7.0 | 17.0 | 0.00 | 0.00 | 0.00 | 19 | 1014.8 |
| 20260904195516 | 81 | 225 | 7.0 | 17.0 | 0.00 | 0.00 | 0.00 | 18 | 1014.8 |
| 20260904194516 | 81 | 225 | 7.0 | 17.0 | 0.00 | 0.00 | 0.00 | 20 | 1014.9 |
| 20260904193516 | 80 | 135 | 7.0 | 18.0 | 0.00 | 0.00 | 0.00 | 19 | 1015.0 |
| 20260904192516 | 80 | 158 | 6.0 | 14.0 | 0.00 | 0.00 | 0.00 | 21 | 1015.0 |
| 20260904191516 | 80 | 203 | 7.0 | 16.0 | 0.00 | 0.00 | 0.00 | 22 | 1015.3 |
| 20260904190516 | 79 | 135 | 7.0 | 17.0 | 0.00 | 0.00 | 0.00 | 21 | 1014.9 |
| 20260904185536 | 79 | 225 | 8.0 | 18.0 | 0.00 | 0.00 | 0.00 | 22 | 1015.2 |
| 20260904184516 | 79 | 225 | 7.0 | 16.0 | 0.00 | 0.00 | 0.00 | 23 | 1015.2 |
| 20260904183516 | 78 | 203 | 8.0 | 18.0 | 0.00 | 0.00 | 0.00 | 23 | 1015.4 |
| 20260904182516 | 78 | 225 | 7.0 | 21.0 | 0.00 | 0.00 | 0.00 | 23 | 1015.6 |
| 20260904181516 | 78 | 225 | 8.0 | 20.0 | 0.00 | 0.00 | 0.00 | 24 | 1015.7 |
| 20260904180516 | 78 | 203 | 7.0 | 15.0 | 0.00 | 0.00 | 0.00 | 23 | 1015.8 |
| 20260904175516 | 77 | 225 | 8.0 | 18.0 | 0.00 | 0.00 | 0.00 | 24 | 1015.9 |
| 20260904174516 | 77 | 158 | 7.0 | 17.0 | 0.00 | 0.00 | 0.00 | 24 | 1016.0 |
| 20260904173516 | 77 | 135 | 10.0 | 19.0 | 0.00 | 0.00 | 0.00 | 24 | 1016.0 |
| 20260904172536 | 76 | 225 | 8.0 | 17.0 | 0.00 | 0.00 | 0.00 | 24 | 1016.1 |
| 20260904171516 | 76 | 203 | 8.0 | 16.0 | 0.00 | 0.00 | 0.00 | 24 | 1016.0 |
| 20260904170516 | 76 | 225 | 8.0 | 18.0 | 0.00 | 0.00 | 0.00 | 24 | 1016.0 |
| 20260904165516 | 76 | 203 | 7.0 | 14.0 | 0.00 | 0.00 | 0.00 | 24 | 1016.0 |
| 20260904164516 | 76 | 225 | 8.0 | 16.0 | 0.00 | 0.00 | 0.00 | 25 | 1016.0 |
| 20260904163516 | 76 | 158 | 5.0 | 10.0 | 0.00 | 0.00 | 0.00 | 24 | 1016.1 |
| 20260904162516 | 75 | 203 | 8.0 | 21.0 | 0.00 | 0.00 | 0.00 | 24 | 1015.9 |
| 20260904161516 | 75 | 225 | 7.0 | 12.0 | 0.00 | 0.00 | 0.00 | 25 | 1015.8 |
| 20260904160516 | 75 | 203 | 8.0 | 17.0 | 0.00 | 0.00 | 0.00 | 27 | 1016.1 |
| 20260904155516 | 74 | 203 | 8.0 | 17.0 | 0.00 | 0.00 | 0.00 | 26 | 1016.1 |
| 20260904154522 | 74 | 158 | 7.0 | 14.0 | 0.00 | 0.00 | 0.00 | 27 | 1016.0 |
| 20260904153516 | 74 | 203 | 5.0 | 13.0 | 0.00 | 0.00 | 0.00 | 29 | 1016.0 |
| 20260904152516 | 74 | 158 | 6.0 | 12.0 | 0.00 | 0.00 | 0.00 | 28 | 1016.0 |
| 20260904151536 | 73 | 225 | 5.0 | 18.0 | 0.00 | 0.00 | 0.00 | 29 | 1015.6 |
| 20260904150516 | 73 | 158 | 3.0 | 8.0 | 0.00 | 0.00 | 0.00 | 29 | 1015.6 |
| 20260904145516 | 72 | 158 | 6.0 | 16.0 | 0.00 | 0.00 | 0.00 | 30 | 1015.5 |
| 20260904144516 | 72 | 158 | 8.0 | 17.0 | 0.00 | 0.00 | 0.00 | 30 | 1015.5 |
| 20260904143516 | 72 | 135 | 7.0 | 21.0 | 0.00 | 0.00 | 0.00 | 29 | 1015.5 |
| 20260904142536 | 72 | 225 | 5.0 | 12.0 | 0.00 | 0.00 | 0.00 | 29 | 1015.3 |
| 20260904141516 | 72 | 158 | 9.0 | 18.0 | 0.00 | 0.00 | 0.00 | 29 | 1015.3 |
| 20260904140516 | 72 | 135 | 7.0 | 18.0 | 0.00 | 0.00 | 0.00 | 29 | 1015.5 |
| 20260904135521 | 72 | 158 | 8.0 | 17.0 | 0.00 | 0.00 | 0.00 | 26 | 1015.6 |
| 20260904134516 | 72 | 135 | 10.0 | 19.0 | 0.00 | 0.00 | 0.00 | 25 | 1015.5 |
| 20260904133516 | 72 | 158 | 8.0 | 16.0 | 0.00 | 0.00 | 0.00 | 24 | 1015.3 |
| 20260904132516 | 72 | 158 | 8.0 | 16.0 | 0.00 | 0.00 | 0.00 | 23 | 1015.2 |
| 20260904131516 | 71 | 203 | 7.0 | 14.0 | 0.00 | 0.00 | 0.00 | 23 | 1015.2 |
| 20260904130516 | 71 | 158 | 6.0 | 17.0 | 0.00 | 0.00 | 0.00 | 23 | 1014.9 |
| 20260904125516 | 72 | 203 | 6.0 | 15.0 | 0.00 | 0.00 | 0.00 | 22 | 1014.6 |
| 20260904124516 | 72 | 158 | 9.0 | 18.0 | 0.00 | 0.00 | 0.00 | 22 | 1014.9 |
| 20260904123516 | 72 | 158 | 8.0 | 19.0 | 0.00 | 0.00 | 0.00 | 21 | 1015.2 |
| 20260904122516 | 72 | 158 | 8.0 | 17.0 | 0.00 | 0.00 | 0.00 | 21 | 1015.0 |
| 20260904121516 | 72 | 158 | 9.0 | 20.0 | 0.00 | 0.00 | 0.00 | 20 | 1014.8 |
| 20260904120516 | 72 | 158 | 6.0 | 15.0 | 0.00 | 0.00 | 0.00 | 19 | 1014.8 |
| 20260904115536 | 72 | 203 | 7.0 | 18.0 | 0.00 | 0.00 | 0.00 | 19 | 1014.6 |
| 20260904114536 | 72 | 203 | 7.0 | 16.0 | 0.00 | 0.00 | 0.00 | 18 | 1014.6 |
| 20260904113516 | 72 | 203 | 6.0 | 12.0 | 0.00 | 0.00 | 0.00 | 19 | 1014.5 |
| 20260904112536 | 72 | 225 | 8.0 | 16.0 | 0.00 | 0.00 | 0.00 | 18 | 1014.5 |
| 20260904111536 | 72 | 135 | 9.0 | 18.0 | 0.00 | 0.00 | 0.00 | 18 | 1014.5 |
| 20260904110521 | 72 | 158 | 6.0 | 18.0 | 0.00 | 0.00 | 0.00 | 18 | 1014.5 |
| 20260904105516 | 72 | 225 | 4.0 | 11.0 | 0.00 | 0.00 | 0.00 | 17 | 1014.4 |
| 20260904104516 | 73 | 158 | 6.0 | 13.0 | 0.00 | 0.00 | 0.00 | 16 | 1014.4 |
| 20260904103516 | 73 | 203 | 6.0 | 17.0 | 0.00 | 0.00 | 0.00 | 16 | 1014.3 |
| 20260904102516 | 73 | 203 | 5.0 | 13.0 | 0.00 | 0.00 | 0.00 | 15 | 1014.1 |
| 20260904101516 | 73 | 135 | 4.0 | 10.0 | 0.00 | 0.00 | 0.00 | 15 | 1014.1 |
| 20260904100516 | 73 | 180 | 6.0 | 14.0 | 0.00 | 0.00 | 0.00 | 14 | 1014.0 |
| 20260904095516 | 74 | 158 | 8.0 | 19.0 | 0.00 | 0.00 | 0.00 | 14 | 1013.9 |
| 20260904094516 | 74 | 135 | 6.0 | 19.0 | 0.00 | 0.00 | 0.00 | 13 | 1013.8 |
| 20260904093516 | 74 | 158 | 6.0 | 17.0 | 0.00 | 0.00 | 0.00 | 12 | 1013.8 |
| 20260904092516 | 74 | 158 | 9.0 | 22.0 | 0.00 | 0.00 | 0.00 | 12 | 1013.7 |
| 20260904091516 | 75 | 135 | 11.0 | 21.0 | 0.00 | 0.00 | 0.00 | 11 | 1013.6 |
| 20260904090515 | 75 | 203 | 7.0 | 16.0 | 0.00 | 0.00 | 0.00 | 11 | 1013.8 |
| 20260904085516 | 75 | 135 | 10.0 | 18.0 | 0.00 | 0.00 | 0.00 | 11 | 1013.7 |
| 20260904084535 | 75 | 158 | 10.0 | 21.0 | 0.00 | 0.00 | 0.00 | 11 | 1013.7 |
| 20260904083516 | 76 | 158 | 8.0 | 15.0 | 0.00 | 0.00 | 0.00 | 11 | 1013.7 |
| 20260904082515 | 76 | 135 | 11.0 | 26.0 | 0.00 | 0.00 | 0.00 | 10 | 1013.6 |
| 20260904081516 | 76 | 158 | 10.0 | 18.0 | 0.00 | 0.00 | 0.00 | 10 | 1013.5 |
| 20260904080515 | 76 | 135 | 13.0 | 24.0 | 0.00 | 0.00 | 0.00 | 10 | 1013.3 |
| 20260904075515 | 76 | 158 | 11.0 | 23.0 | 0.00 | 0.00 | 0.00 | 11 | 1013.6 |
| 20260904074515 | 76 | 158 | 9.0 | 20.0 | 0.00 | 0.00 | 0.00 | 11 | 1013.5 |
| 20260904073515 | 76 | 158 | 6.0 | 15.0 | 0.00 | 0.00 | 0.00 | 11 | 1012.9 |
| 20260904072516 | 76 | 135 | 6.0 | 17.0 | 0.00 | 0.00 | 0.00 | 11 | 1013.0 |
| 20260904071515 | 76 | 158 | 7.0 | 17.0 | 0.00 | 0.00 | 0.00 | 11 | 1013.0 |
| 20260904070516 | 76 | 135 | 10.0 | 19.0 | 0.00 | 0.00 | 0.00 | 11 | 1013.2 |
| 20260904065516 | 76 | 203 | 8.0 | 19.0 | 0.00 | 0.00 | 0.00 | 12 | 1013.0 |
| 20260904064516 | 76 | 158 | 8.0 | 16.0 | 0.00 | 0.00 | 0.00 | 12 | 1012.9 |
| 20260904063516 | 77 | 158 | 8.0 | 17.0 | 0.00 | 0.00 | 0.00 | 12 | 1012.6 |
| 20260904062515 | 77 | 158 | 8.0 | 15.0 | 0.00 | 0.00 | 0.00 | 12 | 1012.7 |
| 20260904061515 | 77 | 158 | 10.0 | 19.0 | 0.00 | 0.00 | 0.00 | 12 | 1012.7 |
| 20260904060535 | 77 | 158 | 9.0 | 19.0 | 0.00 | 0.00 | 0.00 | 13 | 1012.4 |
| 20260904055517 | 77 | 203 | 5.0 | 15.0 | 0.00 | 0.00 | 0.00 | 13 | 1012.3 |
| 20260904054516 | 77 | 135 | 7.0 | 16.0 | 0.00 | 0.00 | 0.00 | 13 | 1012.3 |
| 20260904053516 | 77 | 225 | 5.0 | 12.0 | 0.00 | 0.00 | 0.00 | 13 | 1012.2 |
| 20260904052537 | 77 | 135 | 8.0 | 22.0 | 0.00 | 0.00 | 0.00 | 13 | 1012.1 |
| 20260904051516 | 77 | 158 | 8.0 | 18.0 | 0.00 | 0.00 | 0.00 | 13 | 1012.2 |
| 20260904050536 | 78 | 135 | 8.0 | 16.0 | 0.00 | 0.00 | 0.00 | 13 | 1012.2 |
| 20260904045517 | 78 | 158 | 8.0 | 22.0 | 0.00 | 0.00 | 0.00 | 13 | 1012.2 |
| 20260904044516 | 78 | 135 | 10.0 | 22.0 | 0.00 | 0.00 | 0.00 | 13 | 1012.2 |
| 20260904043516 | 78 | 135 | 9.0 | 20.0 | 0.00 | 0.00 | 0.00 | 13 | 1011.9 |
| 20260904042557 | 78 | 135 | 9.0 | 19.0 | 0.00 | 0.00 | 0.00 | 13 | 1011.9 |
| 20260904041602 | 78 | 135 | 7.0 | 15.0 | 0.00 | 0.00 | 0.00 | 13 | 1011.9 |
| 20260904040516 | 78 | 180 | 6.0 | 13.0 | 0.00 | 0.00 | 0.00 | 13 | 1011.5 |
| 20260904035516 | 78 | 158 | 6.0 | 13.0 | 0.00 | 0.00 | 0.00 | 14 | 1011.4 |
| 20260904034516 | 78 | 135 | 4.0 | 9.0 | 0.00 | 0.00 | 0.00 | 14 | 1011.4 |
| 20260904033516 | 78 | 135 | 5.0 | 15.0 | 0.00 | 0.00 | 0.00 | 14 | 1010.4 |
| 20260904032516 | 77 | 203 | 4.0 | 10.0 | 0.00 | 0.00 | 0.00 | 14 | 1010.4 |
| 20260904031536 | 78 | 158 | 6.0 | 14.0 | 0.00 | 0.00 | 0.00 | 14 | 1010.3 |
| 20260904030516 | 78 | 158 | 6.0 | 12.0 | 0.00 | 0.00 | 0.00 | 14 | 1009.9 |
| 20260904025516 | 78 | 180 | 6.0 | 15.0 | 0.00 | 0.00 | 0.00 | 14 | 1009.8 |
| 20260904024516 | 78 | 158 | 6.0 | 12.0 | 0.00 | 0.00 | 0.00 | 14 | 1009.8 |
| 20260904023516 | 78 | 158 | 5.0 | 11.0 | 0.00 | 0.00 | 0.00 | 14 | 1009.8 |
| 20260904022520 | 78 | 135 | 4.0 | 6.0 | 0.00 | 0.00 | 0.00 | 15 | 1009.7 |
| 20260904021536 | 78 | 135 | 6.0 | 11.0 | 0.00 | 0.00 | 0.00 | 14 | 1009.7 |
| 20260904020516 | 78 | 158 | 3.0 | 6.0 | 0.00 | 0.00 | 0.00 | 15 | 1009.8 |
| 20260904015516 | 79 | 158 | 1.0 | 2.0 | 0.00 | 0.00 | 0.00 | 16 | 1010.1 |
| 20260904014536 | 80 | 225 | 2.0 | 9.0 | 0.00 | 0.00 | 0.00 | 15 | 1010.2 |
| 20260904013516 | 80 | 203 | 5.0 | 15.0 | 0.00 | 0.00 | 0.00 | 15 | 1010.4 |
| 20260904012516 | 81 | 248 | 3.0 | 9.0 | 0.00 | 0.00 | 0.00 | 15 | 1010.4 |
| 20260904011518 | 81 | 225 | 3.0 | 9.0 | 0.00 | 0.00 | 0.00 | 15 | 1010.6 |
| 20260904010516 | 81 | 203 | 4.0 | 11.0 | 0.00 | 0.00 | 0.00 | 14 | 1010.2 |
| 20260904005516 | 80 | 225 | 5.0 | 10.0 | 0.00 | 0.00 | 0.00 | 15 | 1010.2 |
| 20260904004516 | 80 | 113 | 3.0 | 13.0 | 0.00 | 0.00 | 0.00 | 14 | 1010.3 |
| 20260904003516 | 80 | 180 | 4.0 | 14.0 | 0.00 | 0.00 | 0.00 | 14 | 1010.4 |
| 20260904002516 | 81 | 225 | 6.0 | 16.0 | 0.00 | 0.00 | 0.00 | 13 | 1010.3 |
| 20260904001516 | 81 | 248 | 3.0 | 8.0 | 0.00 | 0.00 | 0.00 | 13 | 1010.4 |
| 20260904000516 | 82 | 225 | 4.0 | 9.0 | 0.00 | 0.00 | 0.00 | 13 | 1010.8 |
| 20260903235556 | 82 | 225 | 6.0 | 13.0 | 0.00 | 0.00 | 0.00 | 13 | 1010.9 |
| 20260903234516 | 83 | 225 | 5.0 | 13.0 | 0.00 | 0.00 | 0.00 | 12 | 1011.3 |
| 20260903233536 | 83 | 225 | 7.0 | 16.0 | 0.00 | 0.00 | 0.00 | 11 | 1011.3 |
| 20260903232536 | 84 | 203 | 5.0 | 23.0 | 0.00 | 0.00 | 0.00 | 12 | 1011.5 |
| 20260903231516 | 83 | 225 | 5.0 | 12.0 | 0.00 | 0.00 | 0.00 | 12 | 1011.6 |
| 20260903230516 | 83 | 225 | 6.0 | 13.0 | 0.00 | 0.00 | 0.00 | 12 | 1012.0 |
| 20260903225516 | 83 | 225 | 7.0 | 15.0 | 0.00 | 0.00 | 0.00 | 11 | 1012.1 |
| 20260903224516 | 83 | 225 | 7.0 | 16.0 | 0.00 | 0.00 | 0.00 | 12 | 1012.4 |
| 20260903223537 | 83 | 225 | 5.0 | 11.0 | 0.00 | 0.00 | 0.00 | 13 | 1012.5 |
| 20260903222516 | 82 | 225 | 6.0 | 22.0 | 0.00 | 0.00 | 0.00 | 13 | 1012.3 |